Time;durP1;ratioP1;P1;durP2;ratioP2;P2;SDS_P1;SDS_P2;PMS_P1;PMS_P2;Temp;Humidity;BMP_temperature;BMP_pressure;BME280_temperature;BME280_humidity;BME280_pressure;Samples;Min_cycle;Max_cycle;Signal;HPM_P1;HPM_P2
2023/03/10 00:01:47;;;;;;;16.00;8.18;;;1.70;99.90;;;;;;5049954;28;20041;-67
2023/03/10 00:04:14;;;;;;;18.13;8.80;;;1.70;99.90;;;;;;5050068;28;20037;-67
2023/03/10 00:06:40;;;;;;;19.05;9.93;;;1.80;99.90;;;;;;5050012;28;20112;-67
2023/03/10 00:09:07;;;;;;;18.58;8.85;;;1.80;99.90;;;;;;5050196;28;20045;-67
2023/03/10 00:11:33;;;;;;;14.85;7.85;;;1.70;99.90;;;;;;5048554;28;20049;-67
2023/03/10 00:13:58;;;;;;;16.17;8.40;;;1.70;99.90;;;;;;5049596;28;20045;-67
2023/03/10 00:16:28;;;;;;;13.90;8.63;;;1.70;99.90;;;;;;5049826;28;20379;-67
2023/03/10 00:18:54;;;;;;;19.15;9.13;;;1.70;99.90;;;;;;5050023;28;20041;-67
2023/03/10 00:21:23;;;;;;;17.73;9.55;;;1.70;99.90;;;;;;5050065;28;20492;-67
2023/03/10 00:23:49;;;;;;;16.50;8.48;;;1.70;99.90;;;;;;5049405;28;20051;-67
2023/03/10 00:26:17;;;;;;;13.43;8.18;;;1.70;99.90;;;;;;5049764;28;20120;-67
2023/03/10 00:28:43;;;;;;;16.33;8.13;;;1.70;99.90;;;;;;5048371;28;20045;-67
2023/03/10 00:31:14;;;;;;;17.10;8.05;;;1.70;99.90;;;;;;5049931;28;20051;-67
2023/03/10 00:33:40;;;;;;;13.25;8.40;;;1.70;99.90;;;;;;5049717;28;20037;-67
2023/03/10 00:36:17;;;;;;;11.45;7.40;;;1.70;99.90;;;;;;5049588;28;20107;-67
2023/03/10 00:38:44;;;;;;;15.07;8.80;;;1.70;99.90;;;;;;5049766;28;20059;-67
2023/03/10 00:41:13;;;;;;;13.77;7.60;;;1.70;99.90;;;;;;5049559;28;20047;-66
2023/03/10 00:43:39;;;;;;;15.15;8.52;;;1.70;99.90;;;;;;5049656;28;20405;-67
2023/03/10 00:46:05;;;;;;;14.75;8.25;;;1.70;99.90;;;;;;5049198;28;20053;-67
2023/03/10 00:48:31;;;;;;;15.98;8.98;;;1.70;99.90;;;;;;5049580;28;20056;-67
2023/03/10 00:50:58;;;;;;;14.38;7.47;;;1.70;99.90;;;;;;5049772;28;20036;-67
2023/03/10 00:53:23;;;;;;;14.02;7.60;;;1.70;99.90;;;;;;5049420;28;20048;-67
2023/03/10 00:56:04;;;;;;;16.15;8.35;;;1.70;99.90;;;;;;5048959;28;20390;-67
2023/03/10 00:58:31;;;;;;;16.38;8.40;;;1.70;99.90;;;;;;5049033;28;20037;-66
2023/03/10 01:00:57;;;;;;;16.35;8.50;;;1.70;99.90;;;;;;5049120;28;20052;-67
2023/03/10 01:03:24;;;;;;;13.73;7.50;;;1.70;99.90;;;;;;5049096;28;20068;-67
2023/03/10 01:05:51;;;;;;;12.88;7.97;;;1.70;99.90;;;;;;5048801;28;20037;-67
2023/03/10 01:08:17;;;;;;;15.88;8.55;;;1.70;99.90;;;;;;5048959;28;20056;-66
2023/03/10 01:10:43;;;;;;;13.80;7.38;;;1.70;99.90;;;;;;5047684;28;20048;-67
2023/03/10 01:13:10;;;;;;;15.60;8.50;;;1.70;99.90;;;;;;5048985;28;20079;-67
2023/03/10 01:15:37;;;;;;;14.43;7.78;;;1.70;99.90;;;;;;5048900;28;20095;-67
2023/03/10 01:18:03;;;;;;;13.77;8.20;;;1.70;99.90;;;;;;5049153;28;20048;-67
2023/03/10 01:20:31;;;;;;;15.48;7.75;;;1.70;99.90;;;;;;5048863;28;20049;-67
2023/03/10 01:22:57;;;;;;;15.93;8.27;;;1.70;99.90;;;;;;5048608;28;20045;-67
2023/03/10 01:25:22;;;;;;;16.00;8.35;;;1.70;99.90;;;;;;5048896;28;20064;-67
2023/03/10 01:27:48;;;;;;;13.43;7.30;;;1.70;99.90;;;;;;5048776;28;20398;-67
2023/03/10 01:30:14;;;;;;;14.25;7.93;;;1.70;99.90;;;;;;5048799;28;20028;-67
2023/03/10 01:32:40;;;;;;;15.23;7.57;;;1.70;99.90;;;;;;5048874;28;20036;-67
2023/03/10 01:35:06;;;;;;;16.10;8.57;;;1.70;99.90;;;;;;5048220;28;20060;-67
2023/03/10 01:37:32;;;;;;;13.93;8.55;;;1.70;99.90;;;;;;5048344;28;20501;-67
2023/03/10 01:39:57;;;;;;;15.10;8.43;;;1.70;99.90;;;;;;5048555;28;20050;-67
2023/03/10 01:42:23;;;;;;;13.77;7.63;;;1.80;99.90;;;;;;5048753;28;20409;-67
2023/03/10 01:45:09;;;;;;;13.38;8.05;;;1.80;99.90;;;;;;5048398;28;20041;-66
2023/03/10 01:47:35;;;;;;;14.35;7.70;;;1.80;99.90;;;;;;5048448;28;20045;-67
2023/03/10 01:50:03;;;;;;;12.65;7.47;;;1.80;99.90;;;;;;5048187;28;20048;-66
2023/03/10 01:52:31;;;;;;;16.00;9.00;;;1.70;99.90;;;;;;5048458;28;20717;-67
2023/03/10 01:55:11;;;;;;;15.38;9.05;;;1.80;99.90;;;;;;5048113;28;20048;-66
2023/03/10 01:57:42;;;;;;;14.00;8.10;;;1.80;99.90;;;;;;5048165;28;20709;-67
2023/03/10 02:00:11;;;;;;;13.75;8.68;;;1.80;99.90;;;;;;5048265;28;20079;-66
2023/03/10 02:03:06;;;;;;;14.93;9.40;;;1.80;99.90;;;;;;5048048;28;20079;-67
2023/03/10 02:05:35;;;;;;;15.50;9.23;;;1.80;99.90;;;;;;5047931;28;20079;-67
2023/03/10 02:08:01;;;;;;;17.58;8.82;;;1.80;99.90;;;;;;5048104;28;20049;-67
2023/03/10 02:10:28;;;;;;;14.93;9.05;;;1.80;99.90;;;;;;5048261;28;20378;-67
2023/03/10 02:12:54;;;;;;;15.23;8.77;;;1.80;99.90;;;;;;5047803;28;20601;-67
2023/03/10 02:15:19;;;;;;;16.08;9.65;;;1.80;99.90;;;;;;5048018;28;20037;-67
2023/03/10 02:17:46;;;;;;;16.50;8.55;;;1.80;99.90;;;;;;5048183;28;20037;-67
2023/03/10 02:20:19;;;;;;;15.73;9.10;;;1.70;99.90;;;;;;5048332;28;20120;-67
2023/03/10 02:22:45;;;;;;;14.93;8.95;;;1.80;99.90;;;;;;5048336;28;20051;-67
2023/03/10 02:25:43;;;;;;;15.63;8.70;;;1.80;99.90;;;;;;5047761;28;20501;-67
2023/03/10 02:28:09;;;;;;;14.60;8.57;;;1.80;99.90;;;;;;5035838;28;20425;-68
2023/03/10 02:30:45;;;;;;;13.93;8.10;;;1.70;99.90;;;;;;5048261;28;20041;-67
2023/03/10 02:33:16;;;;;;;14.82;9.18;;;1.70;99.90;;;;;;5048156;28;20037;-67
2023/03/10 02:35:42;;;;;;;14.13;8.25;;;1.70;99.90;;;;;;5047604;28;20116;-68
2023/03/10 02:38:07;;;;;;;15.45;8.30;;;1.70;99.90;;;;;;5047933;28;20168;-67
2023/03/10 02:40:39;;;;;;;15.10;7.93;;;1.70;99.90;;;;;;5063495;28;20491;-67
2023/03/10 02:43:26;;;;;;;14.02;7.88;;;1.70;99.90;;;;;;5068005;28;20404;-67
2023/03/10 02:45:56;;;;;;;15.00;8.18;;;1.70;99.90;;;;;;5067875;28;20393;-67
2023/03/10 02:48:31;;;;;;;12.45;7.40;;;1.70;99.90;;;;;;5068064;28;20037;-67
2023/03/10 02:50:59;;;;;;;14.88;7.63;;;1.70;99.90;;;;;;5067978;28;20040;-67
2023/03/10 02:53:27;;;;;;;12.15;7.30;;;1.70;99.90;;;;;;5070832;28;20082;-67
2023/03/10 02:55:53;;;;;;;14.13;7.47;;;1.70;99.90;;;;;;5071383;28;20040;-67
2023/03/10 02:58:22;;;;;;;14.48;7.38;;;1.70;99.90;;;;;;5071466;28;20048;-67
2023/03/10 03:00:49;;;;;;;11.45;7.13;;;1.70;99.90;;;;;;5071279;28;20131;-67
2023/03/10 03:03:17;;;;;;;11.75;6.88;;;1.70;99.90;;;;;;5071568;28;20048;-67
2023/03/10 03:05:43;;;;;;;10.60;6.75;;;1.70;99.90;;;;;;5071112;28;20036;-67
2023/03/10 03:08:09;;;;;;;12.38;7.18;;;1.70;99.90;;;;;;5071405;28;20551;-68
2023/03/10 03:10:35;;;;;;;11.27;6.95;;;1.70;99.90;;;;;;5071264;28;20032;-67
2023/03/10 03:13:01;;;;;;;12.23;6.70;;;1.70;99.90;;;;;;5070917;28;20052;-66
2023/03/10 03:15:27;;;;;;;12.23;7.57;;;1.70;99.90;;;;;;5070922;28;20153;-67
2023/03/10 03:17:57;;;;;;;12.60;7.80;;;1.70;99.90;;;;;;5071160;28;20516;-67
2023/03/10 03:20:23;;;;;;;12.63;7.40;;;1.60;99.90;;;;;;5071281;28;20056;-67
2023/03/10 03:22:50;;;;;;;12.48;7.20;;;1.60;99.90;;;;;;5071060;28;20568;-67
2023/03/10 03:25:18;;;;;;;14.43;7.38;;;1.70;99.90;;;;;;5070793;28;20127;-66
2023/03/10 03:27:44;;;;;;;13.98;7.65;;;1.60;99.90;;;;;;5070675;28;20051;-66
2023/03/10 03:30:14;;;;;;;13.00;8.05;;;1.70;99.90;;;;;;5071064;28;20044;-67
2023/03/10 03:32:41;;;;;;;12.10;7.20;;;1.70;99.90;;;;;;5070910;28;20075;-67
2023/03/10 03:35:16;;;;;;;14.70;8.38;;;1.70;99.90;;;;;;5070434;28;20055;-67
2023/03/10 03:37:42;;;;;;;13.75;8.30;;;1.60;99.90;;;;;;5070927;28;20097;-66
2023/03/10 03:40:12;;;;;;;12.70;7.90;;;1.60;99.90;;;;;;5070952;28;20075;-66
2023/03/10 03:42:42;;;;;;;15.75;8.77;;;1.70;99.90;;;;;;5071001;28;20376;-67
2023/03/10 03:45:08;;;;;;;16.77;8.88;;;1.60;99.90;;;;;;5070533;28;20148;-67
2023/03/10 03:47:34;;;;;;;18.85;9.57;;;1.70;99.90;;;;;;5070363;28;20037;-67
2023/03/10 03:50:00;;;;;;;16.55;9.43;;;1.60;99.90;;;;;;5070739;28;20050;-67
2023/03/10 03:52:26;;;;;;;17.85;9.98;;;1.60;99.90;;;;;;5070379;28;20066;-67
2023/03/10 03:54:51;;;;;;;16.83;9.88;;;1.60;99.90;;;;;;5070328;28;20039;-67
2023/03/10 03:57:17;;;;;;;22.88;10.52;;;1.70;99.90;;;;;;5070606;28;20054;-67
2023/03/10 03:59:42;;;;;;;17.10;9.85;;;1.70;99.90;;;;;;5070677;28;20408;-67
2023/03/10 04:02:08;;;;;;;20.83;11.18;;;1.60;99.90;;;;;;5070441;28;20048;-68
2023/03/10 04:04:34;;;;;;;21.33;10.18;;;1.70;99.90;;;;;;5070079;28;20043;-67
2023/03/10 04:07:00;;;;;;;18.58;9.63;;;1.70;99.90;;;;;;5070623;28;20393;-67
2023/03/10 04:09:27;;;;;;;17.88;9.98;;;1.60;99.90;;;;;;5070148;28;20060;-67
2023/03/10 04:11:53;;;;;;;19.00;9.73;;;1.70;99.90;;;;;;5070228;28;20127;-68
2023/03/10 04:14:19;;;;;;;21.42;10.45;;;1.70;99.90;;;;;;5069924;28;20131;-67
2023/03/10 04:16:44;;;;;;;18.05;10.07;;;1.70;99.90;;;;;;5070043;28;20098;-68
2023/03/10 04:19:10;;;;;;;18.85;10.25;;;1.70;99.90;;;;;;5070263;28;20048;-68
2023/03/10 04:21:36;;;;;;;15.50;9.18;;;1.70;99.90;;;;;;5070206;28;20044;-68
2023/03/10 04:24:02;;;;;;;19.20;9.82;;;1.70;99.90;;;;;;5069718;28;20047;-68
2023/03/10 04:26:28;;;;;;;17.02;10.15;;;1.70;99.90;;;;;;5069922;28;20044;-68
2023/03/10 04:28:54;;;;;;;20.17;9.45;;;1.70;99.90;;;;;;5068239;28;20048;-68
2023/03/10 04:31:20;;;;;;;17.27;9.75;;;1.70;99.90;;;;;;5069665;28;20039;-68
2023/03/10 04:33:45;;;;;;;20.50;10.40;;;1.70;99.90;;;;;;5069503;28;20037;-67
2023/03/10 04:36:11;;;;;;;16.83;9.00;;;1.70;99.90;;;;;;5069774;28;20036;-68
2023/03/10 04:38:37;;;;;;;14.73;8.95;;;1.70;99.90;;;;;;5069428;28;20420;-68
2023/03/10 04:41:03;;;;;;;17.08;10.15;;;1.70;99.90;;;;;;5069523;28;20611;-68
2023/03/10 04:43:30;;;;;;;14.88;8.30;;;1.60;99.90;;;;;;5069546;28;20071;-68
2023/03/10 04:45:56;;;;;;;14.93;8.55;;;1.70;99.90;;;;;;5069248;28;20048;-68
2023/03/10 04:48:23;;;;;;;13.98;8.13;;;1.70;99.90;;;;;;5069399;28;20086;-68
2023/03/10 04:51:03;;;;;;;12.20;7.85;;;1.70;99.90;;;;;;5069329;28;20040;-68
2023/03/10 04:53:31;;;;;;;13.70;7.90;;;1.70;99.90;;;;;;5069187;28;20497;-68
2023/03/10 04:55:57;;;;;;;14.80;7.05;;;1.60;99.90;;;;;;5067688;28;20409;-69
2023/03/10 04:58:23;;;;;;;11.68;7.40;;;1.60;99.90;;;;;;5069137;28;20076;-68
2023/03/10 05:00:48;;;;;;;12.55;7.00;;;1.60;99.90;;;;;;5069286;28;20475;-68
2023/03/10 05:03:15;;;;;;;12.23;7.28;;;1.60;99.90;;;;;;5069135;28;20503;-69
2023/03/10 05:05:41;;;;;;;9.88;6.05;;;1.70;99.90;;;;;;5068496;28;20616;-68
2023/03/10 05:08:07;;;;;;;11.98;7.03;;;1.60;99.90;;;;;;5068737;28;20052;-68
2023/03/10 05:10:33;;;;;;;11.27;6.57;;;1.60;99.90;;;;;;5069008;28;20037;-68
2023/03/10 05:12:59;;;;;;;13.05;7.60;;;1.60;99.90;;;;;;5068505;28;20062;-67
2023/03/10 05:15:25;;;;;;;10.95;6.60;;;1.60;99.90;;;;;;5067870;28;20036;-68
2023/03/10 05:17:50;;;;;;;12.05;6.93;;;1.60;99.90;;;;;;5068474;28;20120;-67
2023/03/10 05:20:16;;;;;;;9.32;6.43;;;1.60;99.90;;;;;;5068819;28;20508;-67
2023/03/10 05:22:42;;;;;;;9.88;6.15;;;1.60;99.90;;;;;;5068678;28;20040;-67
2023/03/10 05:25:10;;;;;;;11.40;6.95;;;1.60;99.90;;;;;;5068407;28;20733;-67
2023/03/10 05:27:36;;;;;;;12.15;7.25;;;1.60;99.90;;;;;;5068524;28;20052;-67
2023/03/10 05:30:04;;;;;;;9.82;6.38;;;1.60;99.90;;;;;;5068650;28;20059;-67
2023/03/10 05:32:32;;;;;;;10.27;6.60;;;1.60;99.90;;;;;;5068588;28;20425;-67
2023/03/10 05:34:58;;;;;;;9.82;5.78;;;1.60;99.90;;;;;;5068232;28;20040;-67
2023/03/10 05:37:23;;;;;;;12.63;6.85;;;1.70;99.90;;;;;;5068432;28;20043;-66
2023/03/10 05:39:49;;;;;;;10.50;6.15;;;1.70;99.90;;;;;;5068468;28;20037;-66
2023/03/10 05:42:14;;;;;;;10.20;6.15;;;1.70;99.90;;;;;;5068158;28;20119;-66
2023/03/10 05:44:40;;;;;;;10.13;6.50;;;1.60;99.90;;;;;;5068090;28;20111;-66
2023/03/10 05:47:06;;;;;;;11.02;6.72;;;1.70;99.90;;;;;;5068227;28;20044;-67
2023/03/10 05:49:31;;;;;;;11.63;6.18;;;1.70;99.90;;;;;;5068123;28;20515;-66
2023/03/10 05:51:58;;;;;;;9.73;6.20;;;1.70;99.90;;;;;;5068459;28;20039;-67
2023/03/10 05:54:23;;;;;;;12.82;6.82;;;1.70;99.90;;;;;;5068295;28;20041;-67
2023/03/10 05:56:49;;;;;;;10.07;6.68;;;1.70;99.90;;;;;;5068405;28;20098;-67
2023/03/10 05:59:15;;;;;;;13.20;7.15;;;1.70;99.90;;;;;;5068334;28;20064;-67
2023/03/10 06:01:41;;;;;;;13.30;7.40;;;1.60;99.90;;;;;;5068076;28;20105;-67
2023/03/10 06:04:06;;;;;;;11.02;6.55;;;1.70;99.90;;;;;;5067684;28;20405;-66
2023/03/10 06:06:32;;;;;;;12.70;7.80;;;1.70;99.90;;;;;;5068232;28;20124;-67
2023/03/10 06:08:58;;;;;;;12.07;6.78;;;1.60;99.90;;;;;;5068082;28;20075;-67
2023/03/10 06:11:26;;;;;;;14.05;7.13;;;1.60;99.90;;;;;;5067857;28;20037;-67
2023/03/10 06:13:52;;;;;;;12.95;7.60;;;1.70;99.90;;;;;;5067795;28;20033;-67
2023/03/10 06:16:18;;;;;;;11.88;6.60;;;1.70;99.90;;;;;;5067958;28;20032;-67
2023/03/10 06:18:44;;;;;;;10.40;6.93;;;1.70;99.90;;;;;;5067578;28;20048;-67
2023/03/10 06:21:12;;;;;;;10.80;6.90;;;1.70;99.90;;;;;;5067961;28;20047;-66
2023/03/10 06:23:39;;;;;;;14.25;7.47;;;1.70;99.90;;;;;;5066967;28;20125;-66
2023/03/10 06:26:10;;;;;;;14.98;7.38;;;1.60;99.90;;;;;;5065589;28;20044;-66
2023/03/10 06:28:38;;;;;;;11.20;6.93;;;1.60;99.90;;;;;;5068433;28;20052;-66
2023/03/10 06:31:07;;;;;;;11.60;6.85;;;1.60;99.90;;;;;;5070482;28;20412;-66
2023/03/10 06:33:34;;;;;;;11.95;7.18;;;1.70;99.90;;;;;;5069736;28;20512;-67
2023/03/10 06:35:59;;;;;;;12.32;7.70;;;1.60;99.90;;;;;;5069267;28;20096;-67
2023/03/10 06:38:25;;;;;;;11.68;7.05;;;1.60;99.90;;;;;;5071357;28;20072;-67
2023/03/10 06:40:51;;;;;;;12.05;6.43;;;1.60;99.90;;;;;;5070079;28;20094;-67
2023/03/10 06:43:16;;;;;;;13.77;7.80;;;1.60;99.90;;;;;;5071174;28;20101;-67
2023/03/10 06:45:43;;;;;;;11.23;6.40;;;1.80;99.90;;;;;;5071088;28;20040;-67
2023/03/10 06:48:10;;;;;;;12.07;7.03;;;1.70;99.90;;;;;;5069592;28;20124;-68
2023/03/10 06:50:38;;;;;;;14.02;7.22;;;1.70;99.90;;;;;;5047800;28;20481;-68
2023/03/10 06:53:04;;;;;;;11.90;6.40;;;1.70;99.90;;;;;;5031351;28;20081;-67
2023/03/10 06:55:29;;;;;;;12.23;7.03;;;1.80;99.90;;;;;;5030906;28;20088;-68
2023/03/10 06:57:55;;;;;;;12.85;7.45;;;1.80;99.90;;;;;;5031298;28;20047;-67
2023/03/10 07:00:21;;;;;;;12.93;6.68;;;1.80;99.90;;;;;;5031360;28;20568;-67
2023/03/10 07:02:46;;;;;;;10.52;6.50;;;1.90;99.90;;;;;;5031454;28;20727;-66
2023/03/10 07:05:12;;;;;;;12.52;7.53;;;1.80;99.90;;;;;;5031004;28;20045;-67
2023/03/10 07:07:38;;;;;;;13.32;7.45;;;1.80;99.90;;;;;;5031126;28;20052;-67
2023/03/10 07:10:05;;;;;;;13.18;7.38;;;1.70;99.90;;;;;;5031187;28;20037;-68
2023/03/10 07:12:31;;;;;;;15.43;8.13;;;1.70;99.90;;;;;;5030785;28;20172;-66
2023/03/10 07:14:57;;;;;;;14.40;8.00;;;1.70;99.90;;;;;;5031025;28;20136;-67
2023/03/10 07:17:23;;;;;;;12.95;7.88;;;1.70;99.90;;;;;;5031032;28;20045;-68
2023/03/10 07:19:48;;;;;;;14.73;7.53;;;2.00;99.90;;;;;;5030907;28;20411;-68
2023/03/10 07:22:14;;;;;;;15.32;8.45;;;1.80;99.90;;;;;;5030596;28;20063;-68
2023/03/10 07:24:40;;;;;;;14.30;8.05;;;1.70;99.90;;;;;;5030330;28;20048;-67
2023/03/10 07:27:06;;;;;;;17.73;9.18;;;1.80;99.90;;;;;;5030908;28;20052;-67
2023/03/10 07:29:31;;;;;;;19.92;9.77;;;2.00;99.90;;;;;;5030613;28;20550;-67
2023/03/10 07:31:57;;;;;;;16.27;9.23;;;1.90;99.90;;;;;;5030895;28;20052;-67
2023/03/10 07:34:23;;;;;;;16.17;9.30;;;1.90;99.90;;;;;;5030645;28;20517;-66
2023/03/10 07:36:48;;;;;;;16.30;9.88;;;1.80;99.90;;;;;;5030707;28;20517;-67
2023/03/10 07:39:14;;;;;;;18.73;10.45;;;1.80;99.90;;;;;;5029028;28;20458;-67
2023/03/10 07:41:39;;;;;;;18.13;9.02;;;1.80;99.90;;;;;;5030978;28;20506;-66
2023/03/10 07:44:05;;;;;;;20.00;10.32;;;1.80;99.90;;;;;;5030439;28;20034;-68
2023/03/10 07:46:30;;;;;;;19.58;9.50;;;1.80;99.90;;;;;;5030867;28;20038;-67
2023/03/10 07:48:58;;;;;;;21.02;10.15;;;1.70;99.90;;;;;;5030414;28;20406;-67
2023/03/10 07:51:24;;;;;;;19.33;10.60;;;1.80;99.90;;;;;;5030363;28;20083;-69
2023/03/10 07:53:50;;;;;;;19.02;10.55;;;1.80;99.90;;;;;;5036486;28;20026;-67
2023/03/10 07:56:15;;;;;;;19.85;11.40;;;1.80;99.90;;;;;;5038974;28;20034;-67
2023/03/10 07:58:41;;;;;;;19.52;10.32;;;1.80;99.90;;;;;;5040267;28;20039;-67
2023/03/10 08:01:12;;;;;;;20.70;10.65;;;1.80;99.90;;;;;;5040251;28;20508;-67
2023/03/10 08:03:38;;;;;;;18.50;10.18;;;1.80;99.90;;;;;;5037682;28;20045;-68
2023/03/10 08:06:04;;;;;;;21.63;11.35;;;1.80;99.90;;;;;;5039809;28;20122;-67
2023/03/10 08:08:30;;;;;;;22.10;11.20;;;1.80;99.90;;;;;;5040488;28;20042;-67
2023/03/10 08:11:04;;;;;;;19.92;10.88;;;1.80;99.90;;;;;;5039104;28;20393;-67
2023/03/10 08:13:30;;;;;;;22.02;11.45;;;1.80;99.90;;;;;;5039097;28;20060;-67
2023/03/10 08:15:59;;;;;;;22.80;11.30;;;1.80;99.90;;;;;;5029948;28;20048;-67
2023/03/10 08:18:25;;;;;;;21.17;10.80;;;1.80;99.90;;;;;;5030076;28;20106;-67
2023/03/10 08:20:51;;;;;;;20.17;11.52;;;1.90;99.90;;;;;;5030111;28;20053;-67
2023/03/10 08:23:16;;;;;;;19.17;10.68;;;1.90;99.90;;;;;;5029989;28;20068;-67
2023/03/10 08:25:42;;;;;;;21.38;10.93;;;1.90;99.90;;;;;;5029448;28;20085;-67
2023/03/10 08:28:07;;;;;;;21.80;11.05;;;1.90;99.90;;;;;;5029374;28;20051;-67
2023/03/10 08:30:33;;;;;;;19.08;9.90;;;1.90;99.90;;;;;;5029993;28;20490;-67
2023/03/10 08:32:59;;;;;;;18.45;10.30;;;1.90;99.90;;;;;;5029813;28;20121;-67
2023/03/10 08:35:25;;;;;;;18.95;10.07;;;1.90;99.90;;;;;;5029277;28;20084;-67
2023/03/10 08:37:53;;;;;;;20.17;10.30;;;1.90;99.90;;;;;;5029551;28;20532;-67
2023/03/10 08:40:19;;;;;;;17.83;9.00;;;1.90;99.90;;;;;;5029656;28;20099;-66
2023/03/10 08:42:45;;;;;;;19.30;10.25;;;1.90;99.90;;;;;;5029521;28;20045;-67
2023/03/10 08:45:11;;;;;;;19.90;10.80;;;2.00;99.90;;;;;;5029306;28;20052;-66
2023/03/10 08:47:37;;;;;;;19.08;10.07;;;1.90;99.90;;;;;;5029328;28;20084;-67
2023/03/10 08:50:05;;;;;;;16.90;9.05;;;1.90;99.90;;;;;;5028693;28;20057;-67
2023/03/10 08:52:31;;;;;;;21.38;9.88;;;1.90;99.90;;;;;;5042704;28;20033;-67
2023/03/10 08:54:57;;;;;;;21.75;11.60;;;2.00;99.90;;;;;;5028566;28;20033;-68
2023/03/10 08:57:22;;;;;;;19.75;10.18;;;2.00;99.90;;;;;;5029502;28;20103;-68
2023/03/10 08:59:50;;;;;;;20.13;10.23;;;1.90;99.90;;;;;;5029036;28;20047;-68
2023/03/10 09:02:16;;;;;;;19.10;10.88;;;2.00;99.90;;;;;;5036153;28;20041;-68
2023/03/10 09:04:42;;;;;;;18.25;9.98;;;1.90;99.90;;;;;;5029843;28;20445;-68
2023/03/10 09:07:08;;;;;;;18.42;9.25;;;2.00;99.90;;;;;;5029068;28;20045;-69
2023/03/10 09:09:34;;;;;;;18.33;9.63;;;2.00;99.90;;;;;;5028475;28;20069;-68
2023/03/10 09:12:00;;;;;;;16.90;9.55;;;2.00;99.90;;;;;;5033279;28;20520;-68
2023/03/10 09:14:26;;;;;;;18.88;10.00;;;2.00;99.90;;;;;;5043352;28;20048;-68
2023/03/10 09:16:51;;;;;;;19.38;9.98;;;2.00;99.90;;;;;;5038555;28;20085;-68
2023/03/10 09:19:17;;;;;;;20.77;10.55;;;2.00;99.90;;;;;;5040182;28;20064;-68
2023/03/10 09:21:43;;;;;;;20.70;11.00;;;2.00;99.90;;;;;;5038613;28;20120;-67
2023/03/10 09:24:08;;;;;;;18.65;9.75;;;2.00;99.90;;;;;;5038729;28;20109;-68
2023/03/10 09:26:34;;;;;;;18.10;9.48;;;2.00;99.90;;;;;;5039676;28;20072;-68
2023/03/10 09:29:00;;;;;;;18.92;10.38;;;2.00;99.90;;;;;;5037300;28;20076;-68
2023/03/10 09:31:33;;;;;;;18.20;9.90;;;2.00;99.90;;;;;;5033157;28;20044;-68
2023/03/10 09:33:59;;;;;;;20.33;11.05;;;2.00;99.90;;;;;;5036639;28;20102;-67
2023/03/10 09:36:24;;;;;;;22.00;10.85;;;2.00;99.90;;;;;;5033253;28;20041;-68
2023/03/10 09:38:50;;;;;;;17.92;10.05;;;2.10;99.90;;;;;;5036767;28;20048;-67
2023/03/10 09:41:18;;;;;;;20.08;10.40;;;2.00;99.90;;;;;;5038457;28;20065;-68
2023/03/10 09:43:52;;;;;;;18.85;9.65;;;2.00;99.90;;;;;;5037874;28;20053;-68
2023/03/10 09:47:00;;;;;;;21.77;10.57;;;2.10;99.90;;;;;;5032261;28;20059;-68
2023/03/10 09:49:34;;;;;;;18.50;10.13;;;2.00;99.90;;;;;;5022511;28;20075;-68
2023/03/10 09:52:14;;;;;;;21.08;10.10;;;2.10;99.90;;;;;;5037606;28;20763;-67
2023/03/10 09:55:09;;;;;;;19.10;10.77;;;2.10;99.90;;;;;;5042704;28;20578;-68
2023/03/10 09:57:35;;;;;;;16.85;9.85;;;2.10;99.90;;;;;;5044499;28;20041;-67
2023/03/10 10:00:07;;;;;;;17.20;9.77;;;2.10;99.90;;;;;;5051873;28;20537;-67
2023/03/10 10:02:40;;;;;;;19.25;10.73;;;2.10;99.90;;;;;;5036568;28;20052;-67
2023/03/10 10:05:15;;;;;;;18.63;10.98;;;2.10;99.90;;;;;;5027844;28;20046;-67
2023/03/10 10:07:49;;;;;;;19.15;9.65;;;2.00;99.90;;;;;;5039535;28;20069;-67
2023/03/10 10:10:17;;;;;;;16.50;9.90;;;2.00;99.90;;;;;;5038220;28;20035;-67
2023/03/10 10:12:44;;;;;;;17.90;10.25;;;2.00;99.90;;;;;;5045750;28;20044;-67
2023/03/10 10:15:17;;;;;;;18.67;10.48;;;2.00;99.90;;;;;;5045138;28;20409;-67
2023/03/10 10:17:48;;;;;;;18.63;10.23;;;2.00;99.90;;;;;;5046990;28;20417;-68
2023/03/10 10:20:24;;;;;;;19.10;10.23;;;2.00;99.90;;;;;;5047030;28;20406;-67
2023/03/10 10:22:50;;;;;;;20.67;11.35;;;2.00;99.90;;;;;;5042188;28;20122;-67
2023/03/10 10:25:21;;;;;;;18.83;10.25;;;2.00;99.90;;;;;;5039817;28;20526;-67
2023/03/10 10:27:50;;;;;;;18.30;10.10;;;2.00;99.90;;;;;;5038775;28;20048;-67
2023/03/10 10:30:37;;;;;;;19.42;10.02;;;2.00;99.90;;;;;;5047388;28;20049;-67
2023/03/10 10:33:12;;;;;;;17.58;10.23;;;2.10;99.90;;;;;;5035893;28;20052;-67
2023/03/10 10:36:00;;;;;;;20.55;11.90;;;2.00;99.90;;;;;;5027069;28;20060;-66
2023/03/10 10:38:29;;;;;;;21.30;10.60;;;2.00;99.90;;;;;;5043795;28;20103;-67
2023/03/10 10:41:14;;;;;;;23.13;11.77;;;2.00;99.90;;;;;;5036613;28;20120;-67
2023/03/10 10:43:44;;;;;;;22.15;10.75;;;2.00;99.90;;;;;;5040689;28;20089;-67
2023/03/10 10:46:12;;;;;;;22.55;11.13;;;2.00;99.90;;;;;;5036809;28;20468;-66
2023/03/10 10:48:49;;;;;;;22.45;11.38;;;2.00;99.90;;;;;;5050848;28;20424;-66
2023/03/10 10:51:27;;;;;;;18.90;10.35;;;2.00;99.90;;;;;;5054885;28;20517;-66
2023/03/10 10:53:54;;;;;;;19.73;11.50;;;2.00;99.90;;;;;;5046539;28;20079;-67
2023/03/10 10:56:22;;;;;;;17.95;10.00;;;2.00;99.90;;;;;;5045277;28;20064;-67
2023/03/10 10:59:21;;;;;;;20.48;10.43;;;2.00;99.90;;;;;;5046170;28;20094;-67
2023/03/10 11:01:54;;;;;;;18.75;10.73;;;2.10;99.90;;;;;;5028572;28;20088;-67
2023/03/10 11:04:20;;;;;;;;;;;2.00;99.90;;;;;;5033390;28;20410;-67
2023/03/10 11:06:46;;;;;;;20.80;11.25;;;2.00;99.90;;;;;;5063647;28;19952;-67
2023/03/10 11:09:18;;;;;;;22.23;11.77;;;2.00;99.90;;;;;;5042611;28;20045;-67
2023/03/10 11:12:09;;;;;;;24.02;12.30;;;2.00;99.90;;;;;;5038051;28;20452;-67
2023/03/10 11:14:56;;;;;;;25.27;12.57;;;2.00;99.90;;;;;;5051334;28;20060;-67
2023/03/10 11:17:33;;;;;;;21.10;10.68;;;2.00;99.90;;;;;;5042963;28;20029;-67
2023/03/10 11:20:22;;;;;;;22.88;12.02;;;2.00;99.90;;;;;;5041525;28;20041;-67
2023/03/10 11:23:06;;;;;;;22.30;10.93;;;2.00;99.90;;;;;;5046847;28;20083;-66
2023/03/10 11:25:41;;;;;;;25.25;11.60;;;2.00;99.90;;;;;;5041763;28;20060;-67
2023/03/10 11:28:13;;;;;;;25.38;12.25;;;2.00;99.90;;;;;;5035503;28;20159;-68
2023/03/10 11:30:46;;;;;;;21.77;10.75;;;2.00;99.90;;;;;;5039573;28;20057;-68
2023/03/10 11:33:25;;;;;;;25.65;12.95;;;1.90;99.90;;;;;;5037741;28;20050;-67
2023/03/10 11:35:55;;;;;;;22.20;11.95;;;1.90;99.90;;;;;;5041298;28;20135;-67
2023/03/10 11:38:38;;;;;;;22.75;11.57;;;1.90;99.90;;;;;;5043966;28;20576;-67
2023/03/10 11:41:22;;;;;;;22.17;11.93;;;2.40;99.90;;;;;;5050291;28;20055;-66
2023/03/10 11:44:00;;;;;;;19.05;10.82;;;2.20;99.90;;;;;;5049513;28;20772;-69
2023/03/10 11:46:47;;;;;;;22.45;11.80;;;2.20;99.90;;;;;;5047854;28;20045;-67
2023/03/10 11:49:18;;;;;;;19.65;10.80;;;2.10;99.90;;;;;;5048452;28;20122;-67
2023/03/10 11:51:55;;;;;;;21.55;11.38;;;2.20;99.90;;;;;;5050088;28;20067;-67
2023/03/10 11:54:33;;;;;;;20.52;11.18;;;2.10;99.90;;;;;;5050138;28;20063;-66
2023/03/10 11:57:03;;;;;;;22.25;11.60;;;2.10;99.90;;;;;;5048897;28;20454;-66
2023/03/10 11:59:32;;;;;;;20.50;11.23;;;2.10;99.90;;;;;;5049840;28;20076;-65
2023/03/10 12:02:11;;;;;;;20.42;11.20;;;2.10;99.90;;;;;;5050138;28;20051;-66
2023/03/10 12:04:46;;;;;;;20.83;12.00;;;2.20;99.90;;;;;;5049898;28;20173;-66
2023/03/10 12:07:23;;;;;;;21.33;11.18;;;2.20;99.90;;;;;;5050250;28;20059;-65
2023/03/10 12:09:53;;;;;;;21.30;11.18;;;2.20;99.90;;;;;;5047835;28;20052;-66
2023/03/10 12:12:37;;;;;;;18.67;9.68;;;2.20;99.90;;;;;;5045587;28;20036;-66
2023/03/10 12:15:17;;;;;;;22.08;11.82;;;2.40;99.90;;;;;;5039976;28;20474;-66
2023/03/10 12:17:44;;;;;;;21.40;10.63;;;2.40;99.90;;;;;;5029851;28;20063;-66
2023/03/10 12:20:13;;;;;;;21.58;10.55;;;2.30;99.90;;;;;;5040272;28;20032;-67
2023/03/10 12:22:45;;;;;;;20.77;10.80;;;2.20;99.90;;;;;;5039290;28;20041;-66
2023/03/10 12:25:29;;;;;;;20.43;11.10;;;2.30;99.90;;;;;;5035814;28;20056;-66
2023/03/10 12:28:27;;;;;;;23.85;10.55;;;2.20;99.90;;;;;;5039606;28;20791;-66
2023/03/10 12:31:14;;;;;;;19.33;9.48;;;2.30;99.90;;;;;;5037733;28;20160;-66
2023/03/10 12:33:46;;;;;;;20.08;11.38;;;2.20;99.90;;;;;;5039396;28;20429;-66
2023/03/10 12:36:32;;;;;;;22.77;12.57;;;2.20;99.90;;;;;;5038817;28;20404;-66
2023/03/10 12:39:16;;;;;;;22.02;11.15;;;2.20;99.90;;;;;;5042126;28;20045;-66
2023/03/10 12:41:50;;;;;;;22.27;10.32;;;2.20;99.90;;;;;;5046864;28;20047;-66
2023/03/10 12:44:36;;;;;;;22.75;11.75;;;2.10;99.90;;;;;;5048706;28;20057;-66
2023/03/10 12:47:07;;;;;;;22.65;11.23;;;2.10;99.90;;;;;;5029387;28;20076;-66
2023/03/10 12:49:43;;;;;;;21.95;11.95;;;2.10;99.90;;;;;;5032731;28;20051;-66
2023/03/10 12:52:27;;;;;;;20.52;11.00;;;2.10;99.90;;;;;;5036359;28;20032;-65
2023/03/10 12:55:23;;;;;;;20.58;10.75;;;2.10;99.90;;;;;;5038975;28;20156;-66